This is the latest recevied weather packets stored in our database for station/object KB3GVC-13. If no packets are shown the sender has not sent any weather packets the latest 10 day(s).
| Time | Temp. | Humidity | Pressure | Rain* | Wind** | Luminosity | Snow |
|---|---|---|---|---|---|---|---|
| 1777603915 | 11.11° C | 66% | 1013.7 hPa | 0 mm | - | - | - |
| 1777603613 | 11.11° C | 66% | 1013.5 hPa | 0 mm | - | - | - |
| 1777603308 | 11.11° C | 66% | 1013.4 hPa | 0 mm | - | - | - |
| 1777603004 | 11.11° C | 66% | 1013.7 hPa | 0 mm | - | - | - |
| 1777602700 | 11.11° C | 66% | 1013.4 hPa | 0 mm | - | - | - |
| 1777602395 | 11.67° C | 66% | 1013.4 hPa | 0 mm | - | - | - |
| 1777600267 | 12.22° C | 67% | 1013 hPa | 0 mm | - | - | - |
| 1777587215 | 17.78° C | 50% | 1009.4 hPa | 0 mm | - | - | - |
| 1777585696 | 18.33° C | 50% | 1008.9 hPa | 0 mm | - | - | - |
| 1777583881 | 18.33° C | 49% | 1008.7 hPa | 0 mm | - | - | - |
| 1777582674 | 20° C | 47% | 1008.3 hPa | 0 mm | - | - | - |
| 1777580851 | 18.33° C | 52% | 1008.5 hPa | 0 mm | - | - | - |
| 1777580242 | 19.44° C | 50% | 1008 hPa | 0 mm | - | - | - |
| 1777579029 | 18.89° C | 53% | 1008.2 hPa | 0 mm | - | - | - |
| 1777578729 | 18.33° C | 54% | 1008 hPa | 0 mm | - | - | - |
| 1777577821 | 19.44° C | 51% | 1008.2 hPa | 0 mm | - | - | - |
| 1777576300 | 18.33° C | 55% | 1008.1 hPa | 0 mm | - | - | - |
| 1777575388 | 17.78° C | 59% | 1008.2 hPa | 0 mm | - | - | - |
| 1777575085 | 17.78° C | 58% | 1008.1 hPa | 0 mm | - | - | - |
| 1777572353 | 18.89° C | 58% | 1008.6 hPa | 0 mm | - | - | - |
| 1777572050 | 17.78° C | 61% | 1008.5 hPa | 0 mm | - | - | - |
| 1777571448 | 17.78° C | 59% | 1008.7 hPa | 0 mm | - | - | - |
| 1777570233 | 18.33° C | 61% | 1008.8 hPa | 0 mm | - | - | - |
| 1777569927 | 17.78° C | 62% | 1008.9 hPa | 0 mm | - | - | - |
| 1777568108 | 18.33° C | 64% | 1008.8 hPa | 0 mm | - | - | - |
* Rain latest hour (hover to see other rain measurements)
** Current wind speed in m/s (hover to see current wind gust speed)